Jury M — 3EOG2 — position and weather

sailwx.info

Track history (hours):
 
Tides and Currents Weather Stations Pressure Air Temp Water Temp Dewpoint Dewpoint Depression Visibility Wind Speed Wind Dir Waves Ship Positions

Jury M

Last reported at 2015-Jan-23 10:33 UTC. Time now 2015-Jan-30 09:27 UTC.
Position N 31°22' E 121°43'.

Length 182 m; draft 6.6 m.

Type: Cargo ship. MMSI: 355723000.

Date/timePositionNaut miles runAvg speedWind from/ knotsBaromVisibWave heightAir tempDewpointWater temp
2015-Jan-23 10:33N 31°22' E 121°43'0 0.0
2015-Jan-23 09:33N 31°22' E 121°43'0 0.0
2015-Jan-23 08:33N 31°22' E 121°43'0 0.0
2015-Jan-23 07:33N 31°22' E 121°43'0 0.0
2015-Jan-23 06:33N 31°22' E 121°43'0 0.0
2015-Jan-23 05:30N 31°22' E 121°43'0 0.0
2015-Jan-23 04:33N 31°22' E 121°43'0 0.0
2015-Jan-23 03:33N 31°22' E 121°43'0 0.0
2015-Jan-23 02:33N 31°22' E 121°43'  
2015-Jan-20 06:04N 31°22' E 121°43'0 0.0
2015-Jan-20 05:31N 31°22' E 121°43'1 0.5
2015-Jan-20 04:27N 31°22' E 121°42'0 0.3
2015-Jan-20 03:33N 31°22' E 121°43'9 8.9
2015-Jan-20 02:33N 31°16' E 121°51'1110.8
2015-Jan-20 01:33N 31°14' E 122°04'44 6.3
2015-Jan-19 18:29N 30°54' E 122°50'8 7.9
2015-Jan-19 17:25N 30°47' E 122°55'910.5
2015-Jan-19 16:32N 30°39' E 123°01'4310.2
2015-Jan-19 12:16N 29°57' E 122°50'811.1
2015-Jan-19 11:33N 29°50' E 122°45'1110.6
2015-Jan-19 10:32N 29°43' E 122°37'9 9.4
2015-Jan-19 09:33N 29°42' E 122°26'1211.6
2015-Jan-19 08:33N 29°48' E 122°15'1312.7
2015-Jan-19 07:33N 29°55' E 122°03'10 8.0
2015-Jan-19 06:16N 29°57' E 121°51'0 0.0
2015-Jan-19 04:28N 29°57' E 121°51'0 0.0
2015-Jan-19 01:28N 29°57' E 121°51'0 0.0
2015-Jan-19 00:16N 29°57' E 121°51'0 0.0
2015-Jan-18 23:28N 29°57' E 121°51'0 0.0
2015-Jan-18 22:28N 29°57' E 121°51'0 0.0
2015-Jan-18 21:28N 29°57' E 121°51'0 0.0
2015-Jan-18 20:07N 29°57' E 121°51'0 0.0
2015-Jan-18 19:22N 29°57' E 121°51'0 0.0
2015-Jan-18 18:28N 29°57' E 121°51'0 0.0
2015-Jan-18 17:28N 29°57' E 121°51'0 0.0
2015-Jan-18 16:22N 29°57' E 121°51'0 0.0
2015-Jan-18 15:10N 29°57' E 121°51'0 0.0
2015-Jan-18 14:22N 29°57' E 121°51'0 0.0
2015-Jan-18 13:28N 29°57' E 121°51'0 0.0
2015-Jan-18 12:22N 29°57' E 121°51'0 0.0
2015-Jan-18 11:22N 29°57' E 121°51'0 0.0
2015-Jan-18 04:10N 29°57' E 121°51'0 0.0
2015-Jan-18 03:04N 29°57' E 121°51'0 0.0
2015-Jan-18 02:22N 29°57' E 121°51'0 0.0
2015-Jan-18 01:10N 29°57' E 121°51'0 0.0
2015-Jan-18 00:28N 29°57' E 121°51'0 0.0
2015-Jan-17 23:16N 29°57' E 121°51'0 0.0
2015-Jan-17 22:28N 29°57' E 121°51'0 0.0
2015-Jan-17 21:28N 29°57' E 121°51'0 0.0
2015-Jan-17 20:10N 29°57' E 121°51'0 0.0
2015-Jan-17 19:10N 29°57' E 121°51'0 0.0
2015-Jan-17 18:16N 29°57' E 121°51'0 0.0
2015-Jan-17 16:16N 29°57' E 121°51'0 0.0
2015-Jan-17 14:22N 29°57' E 121°51'0 0.0
2015-Jan-17 11:28N 29°57' E 121°51'0 0.0
2015-Jan-17 10:10N 29°57' E 121°51'0 0.0
2015-Jan-17 09:04N 29°57' E 121°51'0 0.0
2015-Jan-17 05:16N 29°57' E 121°51'0 0.0
2015-Jan-17 04:16N 29°57' E 121°51'0 0.0
2015-Jan-17 03:22N 29°57' E 121°51'0 0.0
2015-Jan-17 01:25N 29°57' E 121°51'0 0.0
2015-Jan-17 00:25N 29°57' E 121°51'0 0.0
2015-Jan-16 22:13N 29°57' E 121°51'0 0.0
2015-Jan-16 20:28N 29°57' E 121°51'0 0.0
2015-Jan-16 19:25N 29°57' E 121°51'0 0.0
2015-Jan-16 18:28N 29°57' E 121°51'0 0.0
2015-Jan-16 17:19N 29°57' E 121°51'0 0.0
2015-Jan-16 16:31N 29°57' E 121°51'0 0.0
2015-Jan-16 15:10N 29°57' E 121°51'0 0.0
2015-Jan-16 13:31N 29°57' E 121°51'0 0.0
2015-Jan-16 11:31N 29°57' E 121°51'0 0.0
2015-Jan-16 10:19N 29°57' E 121°51'0 0.0
2015-Jan-16 09:25N 29°57' E 121°51'0 0.0
2015-Jan-16 08:22N 29°57' E 121°51'0 0.0
2015-Jan-16 07:25N 29°57' E 121°51'0 0.0
2015-Jan-16 05:25N 29°57' E 121°51'0 0.0
2015-Jan-16 04:28N 29°57' E 121°51'0 0.0
2015-Jan-16 03:25N 29°57' E 121°51'0 0.0
2015-Jan-16 01:13N 29°57' E 121°51'0 0.0
2015-Jan-16 00:28N 29°57' E 121°51'0 0.0
2015-Jan-15 23:13N 29°57' E 121°51'0 0.0
2015-Jan-15 22:10N 29°57' E 121°51'0 0.0
2015-Jan-15 21:10N 29°57' E 121°51'0 0.0
2015-Jan-15 20:25N 29°57' E 121°51'0 0.0
2015-Jan-15 19:25N 29°57' E 121°51'0 0.0
2015-Jan-15 18:28N 29°57' E 121°51'0 0.0
2015-Jan-15 17:22N 29°57' E 121°51'0 0.0
2015-Jan-15 16:31N 29°57' E 121°51'0 0.0
2015-Jan-15 15:19N 29°57' E 121°51'0 0.0
2015-Jan-15 14:16N 29°57' E 121°51'0 0.0
2015-Jan-15 13:13N 29°57' E 121°51'0 0.0
2015-Jan-15 10:28N 29°57' E 121°51'0 0.0
2015-Jan-15 09:28N 29°57' E 121°51'0 0.0
2015-Jan-15 06:22N 29°57' E 121°51'0 0.0
2015-Jan-15 05:07N 29°57' E 121°51'0 0.8
2015-Jan-15 04:33N 29°57' E 121°51'7 7.1
2015-Jan-15 03:33N 29°57' E 121°59'9 8.9
2015-Jan-15 02:33N 29°56' E 122°09'9 9.1
2015-Jan-15 01:33N 29°48' E 122°15'8 7.6
2015-Jan-15 00:33N 29°44' E 122°23'2 1.4
2015-Jan-14 23:14N 29°44' E 122°25'0 0.0
2015-Jan-14 20:08N 29°45' E 122°25'0 0.1
2015-Jan-14 19:26N 29°45' E 122°25'0 0.0
2015-Jan-14 16:20N 29°44' E 122°25'0 0.0
2015-Jan-14 10:26N 29°44' E 122°25'0 0.0
2015-Jan-14 06:26N 29°45' E 122°25'0 0.0
2015-Jan-14 00:14N 29°44' E 122°25'0 0.1
2015-Jan-13 23:20N 29°44' E 122°25'0 0.1
2015-Jan-13 22:14N 29°44' E 122°25'0 0.2
2015-Jan-13 21:33N 29°45' E 122°25'7 7.3
2015-Jan-13 20:33N 29°44' E 122°34'  
Track history (hours):
 
Tides and Currents Weather Stations Pressure Air Temp Water Temp Dewpoint Dewpoint Depression Visibility Wind Speed Wind Dir Waves Ship Positions

Jury M

Last reported at 2015-Jan-23 10:33 UTC. Time now 2015-Jan-30 09:27 UTC.
Position N 31°22' E 121°43'.

Length 182 m; draft 6.6 m.

Type: Cargo ship. MMSI: 355723000.

Date/timePositionNaut miles runAvg speedWind from/ knotsBaromVisibWave heightAir tempDewpointWater temp
2015-Jan-23 10:33N 31°22' E 121°43'0 0.0
2015-Jan-23 09:33N 31°22' E 121°43'0 0.0
2015-Jan-23 08:33N 31°22' E 121°43'0 0.0
2015-Jan-23 07:33N 31°22' E 121°43'0 0.0
2015-Jan-23 06:33N 31°22' E 121°43'0 0.0
2015-Jan-23 05:30N 31°22' E 121°43'0 0.0
2015-Jan-23 04:33N 31°22' E 121°43'0 0.0
2015-Jan-23 03:33N 31°22' E 121°43'0 0.0
2015-Jan-23 02:33N 31°22' E 121°43'  
2015-Jan-20 06:04N 31°22' E 121°43'0 0.0
2015-Jan-20 05:31N 31°22' E 121°43'1 0.5
2015-Jan-20 04:27N 31°22' E 121°42'0 0.3
2015-Jan-20 03:33N 31°22' E 121°43'9 8.9
2015-Jan-20 02:33N 31°16' E 121°51'1110.8
2015-Jan-20 01:33N 31°14' E 122°04'44 6.3
2015-Jan-19 18:29N 30°54' E 122°50'8 7.9
2015-Jan-19 17:25N 30°47' E 122°55'910.5
2015-Jan-19 16:32N 30°39' E 123°01'4310.2
2015-Jan-19 12:16N 29°57' E 122°50'811.1
2015-Jan-19 11:33N 29°50' E 122°45'1110.6
2015-Jan-19 10:32N 29°43' E 122°37'9 9.4
2015-Jan-19 09:33N 29°42' E 122°26'1211.6
2015-Jan-19 08:33N 29°48' E 122°15'1312.7
2015-Jan-19 07:33N 29°55' E 122°03'10 8.0
2015-Jan-19 06:16N 29°57' E 121°51'0 0.0
2015-Jan-19 04:28N 29°57' E 121°51'0 0.0
2015-Jan-19 01:28N 29°57' E 121°51'0 0.0
2015-Jan-19 00:16N 29°57' E 121°51'0 0.0
2015-Jan-18 23:28N 29°57' E 121°51'0 0.0
2015-Jan-18 22:28N 29°57' E 121°51'0 0.0
2015-Jan-18 21:28N 29°57' E 121°51'0 0.0
2015-Jan-18 20:07N 29°57' E 121°51'0 0.0
2015-Jan-18 19:22N 29°57' E 121°51'0 0.0
2015-Jan-18 18:28N 29°57' E 121°51'0 0.0
2015-Jan-18 17:28N 29°57' E 121°51'0 0.0
2015-Jan-18 16:22N 29°57' E 121°51'0 0.0
2015-Jan-18 15:10N 29°57' E 121°51'0 0.0
2015-Jan-18 14:22N 29°57' E 121°51'0 0.0
2015-Jan-18 13:28N 29°57' E 121°51'0 0.0
2015-Jan-18 12:22N 29°57' E 121°51'0 0.0
2015-Jan-18 11:22N 29°57' E 121°51'0 0.0
2015-Jan-18 04:10N 29°57' E 121°51'0 0.0
2015-Jan-18 03:04N 29°57' E 121°51'0 0.0
2015-Jan-18 02:22N 29°57' E 121°51'0 0.0
2015-Jan-18 01:10N 29°57' E 121°51'0 0.0
2015-Jan-18 00:28N 29°57' E 121°51'0 0.0
2015-Jan-17 23:16N 29°57' E 121°51'0 0.0
2015-Jan-17 22:28N 29°57' E 121°51'0 0.0
2015-Jan-17 21:28N 29°57' E 121°51'0 0.0
2015-Jan-17 20:10N 29°57' E 121°51'0 0.0
2015-Jan-17 19:10N 29°57' E 121°51'0 0.0
2015-Jan-17 18:16N 29°57' E 121°51'0 0.0
2015-Jan-17 16:16N 29°57' E 121°51'0 0.0
2015-Jan-17 14:22N 29°57' E 121°51'0 0.0
2015-Jan-17 11:28N 29°57' E 121°51'0 0.0
2015-Jan-17 10:10N 29°57' E 121°51'0 0.0
2015-Jan-17 09:04N 29°57' E 121°51'0 0.0
2015-Jan-17 05:16N 29°57' E 121°51'0 0.0
2015-Jan-17 04:16N 29°57' E 121°51'0 0.0
2015-Jan-17 03:22N 29°57' E 121°51'0 0.0
2015-Jan-17 01:25N 29°57' E 121°51'0 0.0
2015-Jan-17 00:25N 29°57' E 121°51'0 0.0
2015-Jan-16 22:13N 29°57' E 121°51'0 0.0
2015-Jan-16 20:28N 29°57' E 121°51'0 0.0
2015-Jan-16 19:25N 29°57' E 121°51'0 0.0
2015-Jan-16 18:28N 29°57' E 121°51'0 0.0
2015-Jan-16 17:19N 29°57' E 121°51'0 0.0
2015-Jan-16 16:31N 29°57' E 121°51'0 0.0
2015-Jan-16 15:10N 29°57' E 121°51'0 0.0
2015-Jan-16 13:31N 29°57' E 121°51'0 0.0
2015-Jan-16 11:31N 29°57' E 121°51'0 0.0
2015-Jan-16 10:19N 29°57' E 121°51'0 0.0
2015-Jan-16 09:25N 29°57' E 121°51'0 0.0
2015-Jan-16 08:22N 29°57' E 121°51'0 0.0
2015-Jan-16 07:25N 29°57' E 121°51'0 0.0
2015-Jan-16 05:25N 29°57' E 121°51'0 0.0
2015-Jan-16 04:28N 29°57' E 121°51'0 0.0
2015-Jan-16 03:25N 29°57' E 121°51'0 0.0
2015-Jan-16 01:13N 29°57' E 121°51'0 0.0
2015-Jan-16 00:28N 29°57' E 121°51'0 0.0
2015-Jan-15 23:13N 29°57' E 121°51'0 0.0
2015-Jan-15 22:10N 29°57' E 121°51'0 0.0
2015-Jan-15 21:10N 29°57' E 121°51'0 0.0
2015-Jan-15 20:25N 29°57' E 121°51'0 0.0
2015-Jan-15 19:25N 29°57' E 121°51'0 0.0
2015-Jan-15 18:28N 29°57' E 121°51'0 0.0
2015-Jan-15 17:22N 29°57' E 121°51'0 0.0
2015-Jan-15 16:31N 29°57' E 121°51'0 0.0
2015-Jan-15 15:19N 29°57' E 121°51'0 0.0
2015-Jan-15 14:16N 29°57' E 121°51'0 0.0
2015-Jan-15 13:13N 29°57' E 121°51'0 0.0
2015-Jan-15 10:28N 29°57' E 121°51'0 0.0
2015-Jan-15 09:28N 29°57' E 121°51'0 0.0
2015-Jan-15 06:22N 29°57' E 121°51'0 0.0
2015-Jan-15 05:07N 29°57' E 121°51'0 0.8
2015-Jan-15 04:33N 29°57' E 121°51'7 7.1
2015-Jan-15 03:33N 29°57' E 121°59'9 8.9
2015-Jan-15 02:33N 29°56' E 122°09'9 9.1
2015-Jan-15 01:33N 29°48' E 122°15'8 7.6
2015-Jan-15 00:33N 29°44' E 122°23'2 1.4
2015-Jan-14 23:14N 29°44' E 122°25'0 0.0
2015-Jan-14 20:08N 29°45' E 122°25'0 0.1
2015-Jan-14 19:26N 29°45' E 122°25'0 0.0
2015-Jan-14 16:20N 29°44' E 122°25'0 0.0
2015-Jan-14 10:26N 29°44' E 122°25'0 0.0
2015-Jan-14 06:26N 29°45' E 122°25'0 0.0
2015-Jan-14 00:14N 29°44' E 122°25'0 0.1
2015-Jan-13 23:20N 29°44' E 122°25'0 0.1
2015-Jan-13 22:14N 29°44' E 122°25'0 0.2
2015-Jan-13 21:33N 29°45' E 122°25'7 7.3
2015-Jan-13 20:33N 29°44' E 122°34'  

Dump ship's entire track history